createdAt,value
2018-05-25T00:00:53.414Z,3.60
2018-05-25T00:03:21.075Z,3.90
2018-05-25T00:05:48.736Z,3.37
2018-05-25T00:08:16.403Z,3.63
2018-05-25T00:10:44.187Z,3.87
2018-05-25T00:13:11.857Z,3.87
2018-05-25T00:15:39.629Z,3.43
2018-05-25T00:18:07.389Z,3.63
2018-05-25T00:20:35.040Z,3.97
2018-05-25T00:23:02.712Z,3.50
2018-05-25T00:25:30.476Z,3.47
2018-05-25T00:27:58.127Z,3.57
2018-05-25T00:30:26.916Z,4.00
2018-05-25T00:32:54.681Z,3.37
2018-05-25T00:35:22.320Z,3.67
2018-05-25T00:37:49.983Z,3.30
2018-05-25T00:40:17.769Z,4.00
2018-05-25T00:42:45.412Z,3.50
2018-05-25T00:45:13.075Z,3.67
2018-05-25T00:47:40.732Z,4.43
2018-05-25T00:50:08.417Z,4.83
2018-05-25T00:52:36.057Z,4.03
2018-05-25T00:55:15.778Z,4.00
2018-05-25T00:57:44.408Z,3.87
2018-05-25T01:00:12.181Z,3.47
2018-05-25T01:02:39.834Z,3.80
2018-05-25T01:05:07.601Z,3.87
2018-05-25T01:07:35.362Z,6.00
2018-05-25T01:10:04.060Z,3.53
2018-05-25T01:12:31.918Z,3.70
2018-05-25T01:14:59.555Z,4.70
2018-05-25T01:17:27.219Z,3.80
2018-05-25T01:19:55.004Z,3.50
2018-05-25T01:22:22.667Z,4.30
2018-05-25T01:24:50.308Z,3.73
2018-05-25T01:27:17.969Z,3.60
2018-05-25T01:29:45.754Z,3.90
2018-05-25T01:32:13.405Z,3.60
2018-05-25T01:34:41.055Z,3.90
2018-05-25T01:37:08.861Z,4.00
2018-05-25T01:39:36.507Z,3.87
2018-05-25T01:42:04.167Z,3.50
2018-05-25T01:44:31.932Z,3.43
2018-05-25T01:46:59.602Z,4.40
2018-05-25T01:49:27.255Z,3.83
2018-05-25T01:51:56.044Z,3.57
2018-05-25T01:54:25.252Z,3.77
2018-05-25T01:56:52.913Z,3.87
2018-05-25T01:59:20.645Z,3.90
2018-05-25T02:01:48.433Z,3.63
2018-05-25T02:04:16.084Z,3.20
2018-05-25T02:06:43.769Z,3.57
2018-05-25T02:09:11.539Z,4.03
2018-05-25T02:11:39.191Z,3.90
2018-05-25T02:14:06.952Z,3.60
2018-05-25T02:16:34.825Z,4.27
2018-05-25T02:19:02.580Z,3.77
2018-05-25T02:21:30.243Z,3.90
2018-05-25T02:23:57.903Z,3.97
2018-05-25T02:26:25.546Z,3.43
2018-05-25T02:28:53.203Z,4.53
2018-05-25T02:31:20.889Z,3.93
2018-05-25T02:33:48.531Z,3.60
2018-05-25T02:36:16.202Z,4.07
2018-05-25T02:38:43.897Z,5.50
2018-05-25T02:41:11.826Z,3.97
2018-05-25T02:43:39.509Z,3.90
2018-05-25T02:46:07.201Z,3.40
2018-05-25T02:48:34.865Z,4.00
2018-05-25T02:51:02.534Z,3.80
2018-05-25T02:53:30.185Z,3.73
2018-05-25T02:55:57.845Z,3.70
2018-05-25T02:58:25.522Z,3.70
2018-05-25T03:00:54.183Z,4.63
2018-05-25T03:03:21.945Z,3.80
2018-05-25T03:05:49.704Z,3.43
2018-05-25T03:08:17.465Z,3.57
2018-05-25T03:10:45.224Z,3.63
2018-05-25T03:13:13.071Z,4.03
2018-05-25T03:15:40.727Z,3.77
2018-05-25T03:18:08.391Z,3.53
2018-05-25T03:20:36.073Z,3.70
2018-05-25T03:23:03.713Z,3.67
2018-05-25T03:25:31.372Z,4.07
2018-05-25T03:27:59.036Z,3.40
2018-05-25T03:30:26.726Z,3.60
2018-05-25T03:32:54.383Z,3.53
2018-05-25T03:35:22.045Z,3.27
2018-05-25T03:37:49.820Z,3.80
2018-05-25T03:40:17.586Z,3.53
2018-05-25T03:42:45.238Z,3.60
2018-05-25T03:45:13.010Z,4.90
2018-05-25T03:47:40.664Z,4.33
2018-05-25T03:50:08.339Z,4.43
2018-05-25T03:52:36.202Z,3.67
2018-05-25T03:55:03.853Z,4.30
2018-05-25T03:57:31.499Z,3.40
2018-05-25T04:00:10.989Z,7.70
2018-05-25T04:02:38.725Z,4.77
2018-05-25T04:05:06.484Z,4.47
2018-05-25T04:11:31.024Z,4.00
2018-05-25T04:13:58.713Z,13.07
2018-05-25T04:16:27.566Z,6.40
2018-05-25T04:18:55.224Z,5.83
2018-05-25T04:21:23.964Z,3.87
2018-05-25T04:23:51.665Z,4.00
2018-05-25T04:26:19.490Z,4.83
2018-05-25T04:28:47.283Z,7.07
2018-05-25T04:31:15.125Z,3.77
2018-05-25T04:33:42.868Z,4.63
2018-05-25T04:36:11.350Z,3.83
2018-05-25T04:38:39.816Z,4.67
2018-05-25T04:41:07.703Z,6.83
2018-05-25T04:43:36.196Z,7.57
2018-05-25T04:46:04.731Z,8.80
2018-05-25T04:48:32.720Z,8.67
2018-05-25T04:51:00.666Z,10.63
2018-05-25T04:53:28.407Z,8.33
2018-05-25T04:55:56.211Z,9.47
2018-05-25T04:58:23.926Z,10.67
2018-05-25T05:00:52.178Z,9.60
2018-05-25T05:03:20.921Z,9.00
2018-05-25T05:05:48.689Z,7.00
2018-05-25T05:08:16.432Z,5.20
2018-05-25T05:10:44.328Z,6.47
2018-05-25T05:13:12.192Z,7.90
2018-05-25T05:15:39.991Z,9.13
2018-05-25T05:18:08.626Z,6.57
2018-05-25T05:20:36.848Z,6.07
2018-05-25T05:23:05.337Z,8.60
2018-05-25T05:25:33.985Z,6.63
2018-05-25T05:28:01.745Z,4.40
2018-05-25T05:30:29.470Z,6.73
2018-05-25T05:32:57.193Z,6.17
2018-05-25T05:35:24.876Z,5.83
2018-05-25T05:37:53.469Z,10.87
2018-05-25T05:40:21.460Z,9.27
2018-05-25T05:42:49.133Z,5.03
2018-05-25T05:45:16.820Z,6.03
2018-05-25T05:47:44.499Z,8.23
2018-05-25T05:50:12.203Z,7.33
2018-05-25T05:52:39.940Z,5.20
2018-05-25T05:55:08.491Z,4.87
2018-05-25T05:57:36.175Z,7.37
2018-05-25T06:00:04.830Z,6.27
2018-05-25T06:02:32.529Z,6.37
2018-05-25T06:05:01.021Z,6.57
2018-05-25T06:07:29.469Z,5.23
2018-05-25T06:09:57.185Z,6.00
2018-05-25T06:12:24.884Z,6.10
2018-05-25T06:14:53.064Z,4.77
2018-05-25T06:17:20.805Z,5.40
2018-05-25T06:19:48.478Z,5.73
2018-05-25T06:22:16.162Z,5.17
2018-05-25T06:24:44.317Z,7.07
2018-05-25T06:27:11.999Z,5.37
2018-05-25T06:29:39.780Z,7.63
2018-05-25T06:32:08.316Z,6.37
2018-05-25T06:34:36.015Z,5.47
2018-05-25T06:37:03.723Z,5.30
2018-05-25T06:39:31.427Z,6.07
2018-05-25T06:41:59.191Z,6.03
2018-05-25T06:44:26.956Z,7.03
2018-05-25T06:46:54.653Z,6.73
2018-05-25T06:49:23.171Z,5.27
2018-05-25T06:51:50.874Z,5.00
2018-05-25T06:54:18.626Z,5.73
2018-05-25T06:56:46.626Z,5.63
2018-05-25T06:59:15.106Z,6.13
2018-05-25T07:01:43.569Z,7.37
2018-05-25T07:04:11.364Z,6.63
2018-05-25T07:06:39.124Z,7.33
2018-05-25T07:09:07.557Z,6.30
2018-05-25T07:11:35.224Z,8.80
2018-05-25T07:14:02.974Z,11.47
2018-05-25T07:16:30.872Z,9.63
2018-05-25T07:18:58.565Z,7.57
2018-05-25T07:21:26.537Z,9.63
2018-05-25T07:23:54.339Z,10.27
2018-05-25T07:26:22.024Z,9.83
2018-05-25T07:28:49.864Z,8.17
2018-05-25T07:31:17.577Z,8.47
2018-05-25T07:33:46.037Z,9.07
2018-05-25T07:36:15.773Z,7.00
2018-05-25T07:38:43.489Z,7.70
2018-05-25T07:41:11.185Z,9.43
2018-05-25T07:43:39.636Z,8.10
2018-05-25T07:46:07.322Z,7.27
2018-05-25T07:48:34.981Z,8.50
2018-05-25T07:51:02.664Z,8.73
2018-05-25T07:53:31.106Z,9.53
2018-05-25T07:55:58.835Z,8.57
2018-05-25T07:58:26.650Z,7.10
2018-05-25T08:00:54.321Z,6.60
2018-05-25T08:03:22.023Z,5.80
2018-05-25T08:05:49.772Z,9.20
2018-05-25T08:08:17.517Z,7.00
2018-05-25T08:10:46.075Z,7.60
2018-05-25T08:13:13.843Z,7.17
2018-05-25T08:15:41.533Z,8.80
2018-05-25T08:18:09.987Z,9.33
2018-05-25T08:20:37.665Z,8.10
2018-05-25T08:23:05.368Z,6.57
2018-05-25T08:25:33.053Z,8.23
2018-05-25T08:28:00.870Z,6.50
2018-05-25T08:30:29.358Z,6.00
2018-05-25T08:32:57.789Z,7.90
2018-05-25T08:35:25.490Z,7.27
2018-05-25T08:37:53.905Z,6.63
2018-05-25T08:40:21.647Z,6.20
2018-05-25T08:42:50.075Z,7.10
2018-05-25T08:45:17.774Z,6.73
2018-05-25T08:47:46.279Z,6.57
2018-05-25T08:50:14.295Z,8.83
2018-05-25T08:52:42.008Z,11.57
2018-05-25T08:55:09.793Z,7.87
2018-05-25T08:57:37.516Z,6.63
2018-05-25T09:00:05.989Z,7.80
2018-05-25T09:02:33.783Z,5.93
2018-05-25T09:05:01.525Z,7.03
2018-05-25T09:07:29.999Z,8.67
2018-05-25T09:09:57.858Z,7.87
2018-05-25T09:12:25.602Z,9.03
2018-05-25T09:14:53.828Z,7.40
2018-05-25T09:17:22.314Z,6.53
2018-05-25T09:19:50.280Z,8.10
2018-05-25T09:22:18.310Z,6.67
2018-05-25T09:24:45.966Z,8.73
2018-05-25T09:27:13.729Z,7.60
2018-05-25T09:29:42.237Z,8.57
2018-05-25T09:32:09.908Z,9.77
2018-05-25T09:34:38.452Z,8.93
2018-05-25T09:37:06.164Z,10.23
2018-05-25T09:39:34.638Z,9.60
2018-05-25T09:42:03.105Z,8.77
2018-05-25T09:44:30.982Z,11.67
2018-05-25T09:46:59.395Z,7.13
2018-05-25T09:49:27.105Z,8.90
2018-05-25T09:51:54.819Z,6.37
2018-05-25T09:54:22.492Z,6.33
2018-05-25T09:57:01.301Z,8.77
2018-05-25T09:59:29.015Z,7.33
2018-05-25T10:01:56.688Z,6.30
2018-05-25T10:04:24.377Z,6.57
2018-05-25T10:06:52.422Z,7.03
2018-05-25T10:09:20.100Z,7.37
2018-05-25T10:11:48.643Z,6.67
2018-05-25T10:14:16.319Z,9.23
2018-05-25T10:16:44.034Z,5.87
2018-05-25T10:19:11.728Z,8.00
2018-05-25T10:21:39.425Z,5.80
2018-05-25T10:24:07.890Z,7.03
2018-05-25T10:26:35.562Z,5.93
2018-05-25T10:29:03.226Z,6.23
2018-05-25T10:31:31.694Z,6.53
2018-05-25T10:33:59.391Z,10.13
2018-05-25T10:36:27.097Z,9.80
2018-05-25T10:38:55.352Z,8.40
2018-05-25T10:41:23.099Z,8.00
2018-05-25T10:43:50.881Z,10.90
2018-05-25T10:46:18.654Z,8.33
2018-05-25T10:48:46.339Z,10.37
2018-05-25T10:51:14.004Z,9.90
2018-05-25T10:53:41.733Z,8.63
2018-05-25T10:56:09.400Z,8.20
2018-05-25T10:58:37.077Z,9.23
2018-05-25T11:01:04.916Z,9.53
2018-05-25T11:03:32.606Z,8.77
2018-05-25T11:06:00.339Z,8.60
2018-05-25T11:08:28.064Z,8.20
2018-05-25T11:10:56.006Z,9.27
2018-05-25T11:13:23.803Z,8.47
2018-05-25T11:15:52.247Z,6.80
2018-05-25T11:18:20.000Z,6.53
2018-05-25T11:20:47.680Z,8.87
2018-05-25T11:23:15.393Z,6.63
2018-05-25T11:25:43.860Z,6.77
2018-05-25T11:28:12.292Z,8.37
2018-05-25T11:30:40.043Z,9.23
2018-05-25T11:33:07.747Z,11.23
2018-05-25T11:35:35.459Z,6.73
2018-05-25T11:38:03.157Z,6.10
2018-05-25T11:40:30.824Z,9.40
2018-05-25T11:42:58.680Z,6.60
2018-05-25T11:45:26.358Z,9.07
2018-05-25T11:47:54.049Z,7.50
2018-05-25T11:50:22.660Z,7.30
2018-05-25T11:52:50.347Z,8.87
2018-05-25T11:55:18.041Z,6.97
2018-05-25T11:57:45.779Z,8.60
2018-05-25T12:00:13.479Z,8.30
2018-05-25T12:02:41.925Z,7.90
2018-05-25T12:05:09.610Z,7.70
2018-05-25T12:07:37.284Z,8.00
2018-05-25T12:10:05.740Z,8.37
2018-05-25T12:12:34.158Z,7.70
2018-05-25T12:15:03.078Z,7.90
2018-05-25T12:17:30.733Z,8.70
2018-05-25T12:19:58.445Z,8.23
2018-05-25T12:22:26.122Z,8.77
2018-05-25T12:24:54.593Z,7.77
2018-05-25T12:27:22.320Z,8.00
2018-05-25T12:29:50.001Z,7.57
2018-05-25T12:32:17.677Z,11.47
2018-05-25T12:34:45.351Z,10.83
2018-05-25T12:37:13.036Z,8.40
2018-05-25T12:39:40.745Z,7.47
2018-05-25T12:42:08.435Z,7.43
2018-05-25T12:44:47.995Z,10.47
2018-05-25T12:47:16.483Z,7.97
2018-05-25T12:49:44.237Z,8.30
2018-05-25T12:52:12.679Z,9.77
2018-05-25T12:54:40.411Z,7.07
2018-05-25T12:57:08.072Z,7.13
2018-05-25T12:59:35.873Z,7.73
2018-05-25T13:02:03.536Z,6.90
2018-05-25T13:04:31.217Z,7.33
2018-05-25T13:06:58.881Z,7.33
2018-05-25T13:09:26.589Z,7.50
2018-05-25T13:11:54.335Z,6.53
2018-05-25T13:14:21.993Z,7.87
2018-05-25T13:16:50.444Z,6.33
2018-05-25T13:19:18.121Z,6.83
2018-05-25T13:21:46.722Z,7.03
2018-05-25T13:24:15.156Z,6.53
2018-05-25T13:26:42.908Z,7.30
2018-05-25T13:29:10.675Z,7.30
2018-05-25T13:31:38.376Z,6.67
2018-05-25T13:34:06.820Z,6.93
2018-05-25T13:36:34.500Z,6.33
2018-05-25T13:39:02.154Z,5.87
2018-05-25T13:41:29.864Z,6.37
2018-05-25T13:43:57.505Z,6.20
2018-05-25T13:46:25.968Z,6.23
2018-05-25T13:48:53.637Z,6.47
2018-05-25T13:51:21.649Z,7.47
2018-05-25T13:53:52.228Z,6.73
2018-05-25T13:56:19.929Z,7.07
2018-05-25T13:58:47.627Z,6.30
2018-05-25T14:01:15.390Z,6.63
2018-05-25T14:03:43.059Z,6.33
2018-05-25T14:06:10.754Z,6.23
2018-05-25T14:08:38.413Z,6.07
2018-05-25T14:11:06.188Z,5.83
2018-05-25T14:13:34.628Z,6.40
2018-05-25T14:16:02.314Z,6.37
2018-05-25T14:18:29.992Z,6.43
2018-05-25T14:20:58.436Z,5.67
2018-05-25T14:23:26.142Z,7.30
2018-05-25T14:25:54.604Z,6.10
2018-05-25T14:28:22.313Z,6.27
2018-05-25T14:30:50.039Z,6.23
2018-05-25T14:33:17.693Z,7.23
2018-05-25T14:35:45.372Z,5.70
2018-05-25T14:38:13.833Z,6.20
2018-05-25T14:40:41.512Z,6.90
2018-05-25T14:43:09.964Z,6.10
2018-05-25T14:45:37.706Z,6.63
2018-05-25T14:48:05.391Z,5.73
2018-05-25T14:50:33.077Z,7.57
2018-05-25T14:53:00.756Z,7.93
2018-05-25T14:55:29.224Z,6.13
2018-05-25T14:57:57.728Z,6.40
2018-05-25T15:00:25.453Z,6.03
2018-05-25T15:02:53.128Z,5.90
2018-05-25T15:05:21.603Z,6.23
2018-05-25T15:07:50.074Z,5.97
2018-05-25T15:10:17.804Z,6.10
2018-05-25T15:12:45.481Z,5.30
2018-05-25T15:15:13.181Z,5.53
2018-05-25T15:17:41.601Z,6.20
2018-05-25T15:20:09.387Z,6.33
2018-05-25T15:22:37.106Z,5.93
2018-05-25T15:25:05.920Z,5.90
2018-05-25T15:27:33.601Z,6.30
2018-05-25T15:30:02.419Z,6.40
2018-05-25T15:32:30.103Z,5.77
2018-05-25T15:34:58.531Z,5.80
2018-05-25T15:37:26.227Z,5.50
2018-05-25T15:39:53.917Z,5.63
2018-05-25T15:42:22.384Z,5.77
2018-05-25T15:44:50.844Z,6.00
2018-05-25T15:47:18.517Z,6.17
2018-05-25T15:49:46.220Z,6.27
2018-05-25T15:52:13.937Z,5.73
2018-05-25T15:54:41.669Z,5.80
2018-05-25T15:57:09.430Z,5.73
2018-05-25T15:59:37.119Z,5.80
2018-05-25T16:02:04.833Z,5.90
2018-05-25T16:04:32.549Z,5.80
2018-05-25T16:07:00.238Z,7.50
2018-05-25T16:09:28.689Z,6.20
2018-05-25T16:11:56.443Z,5.77
2018-05-25T16:14:24.169Z,6.20
2018-05-25T16:16:51.863Z,10.33
2018-05-25T16:19:19.574Z,13.33
2018-05-25T16:21:48.127Z,9.37
2018-05-25T16:24:15.812Z,6.43
2018-05-25T16:26:44.357Z,7.43
2018-05-25T16:29:12.499Z,9.17
2018-05-25T16:31:40.216Z,11.17
2018-05-25T16:34:07.926Z,9.67
2018-05-25T16:36:35.610Z,15.43
2018-05-25T16:39:03.390Z,10.50
2018-05-25T16:41:31.070Z,15.93
2018-05-25T16:43:58.800Z,15.37
2018-05-25T16:46:26.481Z,12.40
2018-05-25T16:48:54.158Z,9.73
2018-05-25T16:51:22.765Z,10.47
2018-05-25T16:53:50.491Z,6.73
2018-05-25T16:56:18.161Z,11.73
2018-05-25T16:58:45.989Z,9.33
2018-05-25T17:01:13.749Z,11.43
2018-05-25T17:03:41.409Z,16.00
2018-05-25T17:06:09.138Z,11.83
2018-05-25T17:08:37.602Z,10.47
2018-05-25T17:11:06.103Z,14.93
2018-05-25T17:13:34.539Z,8.83
2018-05-25T17:16:02.238Z,12.37
2018-05-25T17:18:30.689Z,10.40
2018-05-25T17:20:58.408Z,12.93
2018-05-25T17:23:26.195Z,11.07
2018-05-25T17:25:53.902Z,12.03
2018-05-25T17:28:21.574Z,11.03
2018-05-25T17:30:50.074Z,9.53
2018-05-25T17:33:17.961Z,13.73
2018-05-25T17:35:45.615Z,8.87
2018-05-25T17:38:13.393Z,10.20
2018-05-25T17:40:41.101Z,12.30
2018-05-25T17:43:08.795Z,7.17
2018-05-25T17:45:36.516Z,10.13
2018-05-25T17:48:04.181Z,9.47
2018-05-25T17:50:31.889Z,8.70
2018-05-25T17:52:59.612Z,9.20
2018-05-25T17:55:27.304Z,8.57
2018-05-25T17:57:55.733Z,8.03
2018-05-25T18:00:23.485Z,10.83
2018-05-25T18:02:51.171Z,10.00
2018-05-25T18:05:18.920Z,10.93
2018-05-25T18:07:46.605Z,7.83
2018-05-25T18:10:14.422Z,7.53
2018-05-25T18:12:42.099Z,7.53
2018-05-25T18:15:10.237Z,7.23
2018-05-25T18:17:37.990Z,7.77
2018-05-25T18:20:06.472Z,11.00
2018-05-25T18:22:34.937Z,11.03
2018-05-25T18:25:02.614Z,13.00
2018-05-25T18:27:31.082Z,11.67
2018-05-25T18:29:58.844Z,13.27
2018-05-25T18:32:26.572Z,17.63
2018-05-25T18:34:54.241Z,11.67
2018-05-25T18:37:21.964Z,12.27
2018-05-25T18:39:49.669Z,12.23
2018-05-25T18:42:17.573Z,10.90
2018-05-25T18:44:46.022Z,14.40
2018-05-25T18:47:13.705Z,13.47
2018-05-25T18:49:41.381Z,11.20
2018-05-25T18:52:09.840Z,11.00
2018-05-25T18:54:37.525Z,9.03
2018-05-25T18:57:06.009Z,10.87
2018-05-25T18:59:34.471Z,11.03
2018-05-25T19:02:02.188Z,8.07
2018-05-25T19:04:29.892Z,9.77
2018-05-25T19:06:57.585Z,8.47
2018-05-25T19:09:26.054Z,8.60
2018-05-25T19:11:54.533Z,8.83
2018-05-25T19:14:23.029Z,11.83
2018-05-25T19:16:51.491Z,12.13
2018-05-25T19:19:19.166Z,11.77
2018-05-25T19:21:47.620Z,10.83
2018-05-25T19:24:15.305Z,9.60
2018-05-25T19:26:43.849Z,10.60
2018-05-25T19:29:11.568Z,9.73
2018-05-25T19:31:39.360Z,12.60
2018-05-25T19:34:07.034Z,10.27
2018-05-25T19:36:34.727Z,11.57
2018-05-25T19:39:02.461Z,12.47
2018-05-25T19:41:30.128Z,11.13
2018-05-25T19:43:57.784Z,10.50
2018-05-25T19:46:25.501Z,13.57
2018-05-25T19:48:53.956Z,10.23
2018-05-25T19:51:21.652Z,9.50
2018-05-25T19:53:49.358Z,9.60
2018-05-25T19:56:17.020Z,11.20
2018-05-25T19:58:44.710Z,9.27
2018-05-25T20:01:12.401Z,8.80
2018-05-25T20:03:40.104Z,10.40
2018-05-25T20:06:07.786Z,9.33
2018-05-25T20:08:35.438Z,10.93
2018-05-25T20:11:03.590Z,11.40
2018-05-25T20:13:31.264Z,8.93
2018-05-25T20:15:58.956Z,9.07
2018-05-25T20:18:26.682Z,10.47
2018-05-25T20:20:54.368Z,8.83
2018-05-25T20:23:22.040Z,11.40
2018-05-25T20:25:49.750Z,13.67
2018-05-25T20:28:17.504Z,13.83
2018-05-25T20:30:45.234Z,11.43
2018-05-25T20:33:12.953Z,10.33
2018-05-25T20:35:40.632Z,11.27
2018-05-25T20:38:08.300Z,10.37
2018-05-25T20:40:35.961Z,8.37
2018-05-25T20:43:03.641Z,8.83
2018-05-25T20:45:31.310Z,8.33
2018-05-25T20:47:59.228Z,9.70
2018-05-25T20:50:27.016Z,7.80
2018-05-25T20:52:54.674Z,8.17
2018-05-25T20:55:22.331Z,8.17
2018-05-25T20:57:50.005Z,9.83
2018-05-25T21:00:17.664Z,8.93
2018-05-25T21:02:45.321Z,9.53
2018-05-25T21:05:12.984Z,8.90
2018-05-25T21:07:40.659Z,8.00
2018-05-25T21:10:08.315Z,8.47
2018-05-25T21:12:35.973Z,8.07
2018-05-25T21:15:03.973Z,7.33
2018-05-25T21:17:31.678Z,7.67
2018-05-25T21:19:59.369Z,7.70
2018-05-25T21:22:27.034Z,8.33
2018-05-25T21:24:54.691Z,7.97
2018-05-25T21:27:22.429Z,7.47
2018-05-25T21:29:50.217Z,6.83
2018-05-25T21:32:17.879Z,7.63
2018-05-25T21:34:45.549Z,7.00
2018-05-25T21:37:13.262Z,7.33
2018-05-25T21:39:40.896Z,7.20
2018-05-25T21:42:08.557Z,7.10
2018-05-25T21:44:36.221Z,8.03
2018-05-25T21:47:03.896Z,7.17
2018-05-25T21:49:32.337Z,7.20
2018-05-25T21:51:59.993Z,7.07
2018-05-25T21:54:27.685Z,6.87
2018-05-25T21:56:55.356Z,7.50
2018-05-25T21:59:23.777Z,7.27
2018-05-25T22:01:51.507Z,6.63
2018-05-25T22:04:19.926Z,7.90
2018-05-25T22:06:47.578Z,6.60
2018-05-25T22:09:15.302Z,6.93
2018-05-25T22:11:42.961Z,7.20
2018-05-25T22:14:10.623Z,6.67
2018-05-25T22:16:38.332Z,7.13
2018-05-25T22:19:06.401Z,6.60
2018-05-25T22:21:34.092Z,7.00
2018-05-25T22:24:01.751Z,6.37
2018-05-25T22:26:29.413Z,6.97
2018-05-25T22:28:57.073Z,6.60
2018-05-25T22:31:24.838Z,8.13
2018-05-25T22:33:52.500Z,8.47
2018-05-25T22:36:20.164Z,6.23
2018-05-25T22:38:47.825Z,6.17
2018-05-25T22:41:15.497Z,6.43
2018-05-25T22:43:54.930Z,7.00
2018-05-25T22:46:34.643Z,6.73
2018-05-25T22:49:14.481Z,6.23
2018-05-25T22:51:53.941Z,6.33
2018-05-25T22:54:28.861Z,6.33
2018-05-25T22:56:56.755Z,5.80
2018-05-25T22:59:24.421Z,6.40
2018-05-25T23:01:52.073Z,6.53
2018-05-25T23:04:19.721Z,6.57
2018-05-25T23:06:47.377Z,6.27
2018-05-25T23:09:15.036Z,6.37
2018-05-25T23:11:42.737Z,6.53
2018-05-25T23:14:10.392Z,6.37
2018-05-25T23:16:38.059Z,6.10
2018-05-25T23:19:05.719Z,6.30
2018-05-25T23:21:33.756Z,6.07
2018-05-25T23:24:01.420Z,5.70
2018-05-25T23:26:29.081Z,5.80
2018-05-25T23:28:56.773Z,6.27
2018-05-25T23:31:24.437Z,6.03
2018-05-25T23:33:52.110Z,5.20
2018-05-25T23:36:19.769Z,5.77
2018-05-25T23:38:47.426Z,5.67
2018-05-25T23:41:15.090Z,5.90
2018-05-25T23:43:42.752Z,5.67
2018-05-25T23:46:10.414Z,5.27
2018-05-25T23:48:38.073Z,5.53
2018-05-25T23:51:05.733Z,6.17
2018-05-25T23:53:33.401Z,6.20
2018-05-25T23:56:01.060Z,6.03
2018-05-25T23:58:28.721Z,5.80
